Time;durP1;ratioP1;P1;durP2;ratioP2;P2;SDS_P1;SDS_P2;PMS_P1;PMS_P2;Temp;Humidity;BMP_temperature;BMP_pressure;BME280_temperature;BME280_humidity;BME280_pressure;Samples;Min_cycle;Max_cycle;Signal;HPM_P1;HPM_P2
2021/10/25 00:00:22;;;;;;;3.20;2.60;;;9.60;99.90;;;;;;5041521;28;20189;-79
2021/10/25 00:02:51;;;;;;;4.32;3.88;;;9.60;99.90;;;;;;5026987;28;20607;-80
2021/10/25 00:05:17;;;;;;;4.13;3.33;;;9.50;99.90;;;;;;5035882;28;20208;-80
2021/10/25 00:07:43;;;;;;;4.40;3.40;;;9.50;99.90;;;;;;5035212;28;20173;-78
2021/10/25 00:10:09;;;;;;;6.80;3.37;;;9.50;99.90;;;;;;5033670;28;20220;-79
2021/10/25 00:12:36;;;;;;;7.38;3.65;;;9.50;99.90;;;;;;5017002;28;20640;-79
2021/10/25 00:15:02;;;;;;;4.78;3.90;;;9.50;99.90;;;;;;5036287;28;20177;-80
2021/10/25 00:17:31;;;;;;;4.13;3.35;;;9.50;99.90;;;;;;5035972;28;20653;-79
2021/10/25 00:19:57;;;;;;;4.68;2.92;;;9.50;99.90;;;;;;5037198;28;20175;-79
2021/10/25 00:22:23;;;;;;;5.13;3.67;;;9.40;99.90;;;;;;5036363;28;20181;-79
2021/10/25 00:24:48;;;;;;;5.50;3.87;;;9.40;99.90;;;;;;5035225;28;20228;-80
2021/10/25 00:27:14;;;;;;;4.60;3.60;;;9.40;99.90;;;;;;5038544;28;20663;-80
2021/10/25 00:29:42;;;;;;;7.00;3.35;;;9.40;99.90;;;;;;5046078;28;20169;-79
2021/10/25 00:32:08;;;;;;;6.93;3.30;;;9.40;99.90;;;;;;5036590;28;20202;-80
2021/10/25 00:34:34;;;;;;;5.35;3.92;;;9.40;99.90;;;;;;5033747;28;20670;-80
2021/10/25 00:37:02;;;;;;;3.67;3.27;;;9.30;99.90;;;;;;5038150;28;20169;-79
2021/10/25 00:39:31;;;;;;;3.78;3.25;;;9.30;99.90;;;;;;5036107;28;20178;-79
2021/10/25 00:41:57;;;;;;;5.22;3.83;;;9.30;99.90;;;;;;5033921;28;20255;-79
2021/10/25 00:44:25;;;;;;;4.32;3.13;;;9.30;99.90;;;;;;5034299;28;20257;-79
2021/10/25 00:46:51;;;;;;;4.90;3.60;;;9.30;99.90;;;;;;5033005;28;20184;-79
2021/10/25 00:49:17;;;;;;;3.70;3.27;;;9.30;99.90;;;;;;5016847;28;20658;-79
2021/10/25 00:51:45;;;;;;;9.13;3.30;;;9.30;99.90;;;;;;5032444;28;20236;-79
2021/10/25 00:54:11;;;;;;;5.50;3.30;;;9.30;99.90;;;;;;5032394;28;20177;-79
2021/10/25 00:56:41;;;;;;;4.20;2.90;;;9.30;99.90;;;;;;5032227;28;20169;-79
2021/10/25 00:59:07;;;;;;;4.28;2.88;;;9.30;99.90;;;;;;5032813;28;20568;-79
2021/10/25 01:01:32;;;;;;;7.50;4.37;;;9.30;99.90;;;;;;5032280;28;20182;-79
2021/10/25 01:03:59;;;;;;;4.20;3.63;;;9.20;99.90;;;;;;5032525;28;20184;-79
2021/10/25 01:06:25;;;;;;;7.55;3.83;;;9.30;99.90;;;;;;5033472;28;20971;-79
2021/10/25 01:08:53;;;;;;;5.70;3.55;;;9.20;99.90;;;;;;5032723;28;20193;-79
2021/10/25 01:11:19;;;;;;;5.70;4.20;;;9.20;99.90;;;;;;5032261;28;20300;-79
2021/10/25 01:13:45;;;;;;;3.95;3.35;;;9.20;99.90;;;;;;5016609;28;20174;-79
2021/10/25 01:16:12;;;;;;;7.68;4.40;;;9.20;99.90;;;;;;5019628;28;20173;-79
2021/10/25 01:18:38;;;;;;;5.57;3.97;;;9.10;99.90;;;;;;5032649;28;20170;-79
2021/10/25 01:21:04;;;;;;;4.93;3.90;;;9.10;99.90;;;;;;5015875;28;20189;-79
2021/10/25 01:23:30;;;;;;;4.27;3.87;;;9.10;99.90;;;;;;5031684;28;20166;-79
2021/10/25 01:25:57;;;;;;;5.85;3.47;;;9.10;99.90;;;;;;5032020;28;20615;-79
2021/10/25 01:28:23;;;;;;;5.33;4.47;;;9.10;99.90;;;;;;5033045;28;20201;-79
2021/10/25 01:30:50;;;;;;;5.30;4.07;;;9.10;99.90;;;;;;5031782;28;20604;-79
2021/10/25 01:33:17;;;;;;;4.30;3.87;;;9.10;99.90;;;;;;5033276;28;20872;-79
2021/10/25 01:35:44;;;;;;;8.13;3.65;;;9.10;99.90;;;;;;5031940;28;20182;-79
2021/10/25 01:38:12;;;;;;;7.05;3.70;;;9.10;99.90;;;;;;5031810;28;20181;-79
2021/10/25 01:40:38;;;;;;;8.65;4.60;;;9.10;99.90;;;;;;5031597;28;20190;-79
2021/10/25 01:43:05;;;;;;;5.88;4.53;;;9.00;99.90;;;;;;5031767;28;20712;-79
2021/10/25 01:45:31;;;;;;;6.20;4.38;;;9.10;99.90;;;;;;5031607;28;20323;-79
2021/10/25 01:47:57;;;;;;;7.50;3.83;;;9.00;99.90;;;;;;5032161;28;20635;-79
2021/10/25 01:50:25;;;;;;;3.97;3.22;;;9.00;99.90;;;;;;5031529;28;20193;-79
2021/10/25 01:52:52;;;;;;;3.40;3.10;;;9.00;99.90;;;;;;5036427;28;20193;-79
2021/10/25 01:55:18;;;;;;;6.05;3.38;;;9.00;99.90;;;;;;5031544;28;20179;-79
2021/10/25 01:57:44;;;;;;;5.18;3.28;;;9.00;99.90;;;;;;5031684;28;20173;-79
2021/10/25 02:00:13;;;;;;;3.72;3.13;;;9.00;99.90;;;;;;5015852;28;20254;-79
2021/10/25 02:02:39;;;;;;;5.33;4.60;;;9.00;99.90;;;;;;5032195;28;20197;-79
2021/10/25 02:05:09;;;;;;;5.20;4.10;;;9.00;99.90;;;;;;5031162;28;20192;-79
2021/10/25 02:07:35;;;;;;;5.53;3.83;;;9.00;99.90;;;;;;5030887;28;20174;-79
2021/10/25 02:10:01;;;;;;;4.50;3.75;;;8.90;99.90;;;;;;5031321;28;20174;-79
2021/10/25 02:12:28;;;;;;;6.15;3.88;;;8.90;99.90;;;;;;5031967;28;20212;-79
2021/10/25 02:14:54;;;;;;;4.50;3.47;;;8.90;99.90;;;;;;5031395;28;20530;-79
2021/10/25 02:17:20;;;;;;;6.60;3.77;;;8.90;99.90;;;;;;5032301;28;20173;-79
2021/10/25 02:19:58;;;;;;;4.05;3.53;;;8.90;99.90;;;;;;5031339;28;20576;-79
2021/10/25 02:22:25;;;;;;;4.45;4.05;;;8.90;99.90;;;;;;5014547;28;20224;-79
2021/10/25 02:24:51;;;;;;;6.25;3.40;;;8.90;99.90;;;;;;5031367;28;20174;-79
2021/10/25 02:27:21;;;;;;;4.88;4.35;;;8.80;99.90;;;;;;5033434;28;20174;-79
2021/10/25 02:29:47;;;;;;;3.58;3.22;;;8.80;99.90;;;;;;5036754;28;20169;-79
2021/10/25 02:32:32;;;;;;;5.72;3.80;;;8.80;99.90;;;;;;5030569;28;20205;-79
2021/10/25 02:34:57;;;;;;;7.27;4.00;;;8.80;99.90;;;;;;5031165;28;20173;-79
2021/10/25 02:37:23;;;;;;;5.00;3.63;;;8.80;99.90;;;;;;5030672;28;20532;-79
2021/10/25 02:39:49;;;;;;;8.35;4.15;;;8.70;99.90;;;;;;5030634;28;20572;-79
2021/10/25 02:42:15;;;;;;;4.90;3.78;;;8.70;99.90;;;;;;4997953;28;20209;-79
2021/10/25 02:44:42;;;;;;;3.47;3.10;;;8.70;99.90;;;;;;5013692;28;20232;-79
2021/10/25 02:47:12;;;;;;;4.65;3.40;;;8.80;99.90;;;;;;5015316;28;20200;-80
2021/10/25 02:49:38;;;;;;;4.60;3.90;;;8.80;99.90;;;;;;5030920;28;20178;-79
2021/10/25 02:52:04;;;;;;;5.67;3.40;;;8.70;99.90;;;;;;5030907;28;21090;-79
2021/10/25 02:54:33;;;;;;;8.10;3.90;;;8.70;99.90;;;;;;5030720;28;20180;-79
2021/10/25 02:56:59;;;;;;;5.30;3.75;;;8.70;99.90;;;;;;5032083;28;20170;-80
2021/10/25 02:59:30;;;;;;;4.57;3.50;;;8.70;99.90;;;;;;5030788;28;20169;-80
2021/10/25 03:01:56;;;;;;;5.03;4.38;;;8.70;99.90;;;;;;5030630;28;20201;-80
2021/10/25 03:04:22;;;;;;;5.83;4.37;;;8.60;99.90;;;;;;5030331;28;20166;-79
2021/10/25 03:06:48;;;;;;;5.03;4.20;;;8.60;99.90;;;;;;5035230;28;20641;-79
2021/10/25 03:09:13;;;;;;;7.90;4.30;;;8.60;99.90;;;;;;5030465;28;20223;-79
2021/10/25 03:11:39;;;;;;;5.07;3.77;;;8.60;99.90;;;;;;5030118;28;20291;-79
2021/10/25 03:14:05;;;;;;;4.63;3.53;;;8.60;99.90;;;;;;5030131;28;20631;-80
2021/10/25 03:16:45;;;;;;;2.97;2.67;;;8.60;99.90;;;;;;5030296;28;20603;-79
2021/10/25 03:19:10;;;;;;;7.03;3.60;;;8.60;99.90;;;;;;5033209;28;20170;-79
2021/10/25 03:21:37;;;;;;;4.28;3.88;;;8.60;99.90;;;;;;5017512;28;20190;-79
2021/10/25 03:24:04;;;;;;;6.88;3.85;;;8.60;99.90;;;;;;5017393;28;20296;-79
2021/10/25 03:26:32;;;;;;;3.80;3.42;;;8.60;99.90;;;;;;5034120;28;20173;-79
2021/10/25 03:28:58;;;;;;;4.78;3.95;;;8.60;99.90;;;;;;5033423;28;20264;-79
2021/10/25 03:31:24;;;;;;;5.72;4.03;;;8.60;99.90;;;;;;5029830;28;20228;-80
2021/10/25 03:33:50;;;;;;;3.83;3.47;;;8.50;99.90;;;;;;5027042;28;20174;-79
2021/10/25 03:36:24;;;;;;;4.38;3.08;;;8.50;99.90;;;;;;5034474;28;20196;-79
2021/10/25 03:38:51;;;;;;;3.65;3.13;;;8.50;99.90;;;;;;5026513;28;20181;-79
2021/10/25 03:41:21;;;;;;;4.47;4.05;;;8.50;99.90;;;;;;5033695;28;20610;-79
2021/10/25 03:43:55;;;;;;;4.32;3.88;;;8.50;99.90;;;;;;5029624;28;20261;-79
2021/10/25 03:46:47;;;;;;;4.22;3.03;;;8.50;99.90;;;;;;5030807;28;20181;-79
2021/10/25 03:52:18;;;;;;;7.10;4.18;;;8.40;99.90;;;;;;5033434;28;20205;-79
2021/10/25 03:54:52;;;;;;;5.03;4.38;;;8.40;99.90;;;;;;5017407;28;20317;-78
2021/10/25 04:30:11;;;;;;;6.78;5.45;;;8.20;99.90;;;;;;5032285;28;20205;-80
2021/10/25 04:32:37;;;;;;;6.47;5.30;;;8.20;99.90;;;;;;5021626;28;20202;-80
2021/10/25 04:35:07;;;;;;;5.35;4.38;;;8.20;99.90;;;;;;5018588;28;20647;-80
2021/10/25 04:37:56;;;;;;;6.60;4.95;;;8.20;99.90;;;;;;5003348;28;20186;-79
2021/10/25 04:40:23;;;;;;;5.50;3.00;;;8.20;99.90;;;;;;5024407;28;20297;-79
2021/10/25 04:42:50;;;;;;;4.45;4.00;;;8.20;99.90;;;;;;5032408;28;20188;-79
2021/10/25 04:45:18;;;;;;;5.38;4.70;;;8.20;99.90;;;;;;5025939;28;20177;-79
2021/10/25 04:47:50;;;;;;;6.15;4.65;;;8.20;99.90;;;;;;5012970;28;20182;-78
2021/10/25 04:50:36;;;;;;;8.43;5.45;;;8.20;99.90;;;;;;5026955;28;20197;-79
2021/10/25 04:53:19;;;;;;;7.00;4.95;;;8.20;99.90;;;;;;5015724;28;20182;-79
2021/10/25 04:55:45;;;;;;;6.80;3.90;;;8.10;99.90;;;;;;5033055;28;20172;-78
2021/10/25 04:58:12;;;;;;;6.57;4.27;;;8.20;99.90;;;;;;5020275;28;20186;-78
2021/10/25 05:00:37;;;;;;;7.25;5.30;;;8.20;99.90;;;;;;4999809;28;20189;-79
2021/10/25 05:03:06;;;;;;;5.10;4.07;;;8.20;99.90;;;;;;5032011;28;20162;-78
2021/10/25 05:05:32;;;;;;;5.85;4.38;;;8.10;99.90;;;;;;5032486;28;20189;-78
2021/10/25 05:07:59;;;;;;;8.73;5.65;;;8.10;99.90;;;;;;5032279;28;20201;-80
2021/10/25 05:10:24;;;;;;;6.80;4.72;;;8.20;99.90;;;;;;5025672;28;20202;-78
2021/10/25 05:12:51;;;;;;;7.00;5.35;;;8.20;99.90;;;;;;5031288;28;20284;-78
2021/10/25 05:15:18;;;;;;;5.43;4.93;;;8.10;99.90;;;;;;5024158;28;20252;-78
2021/10/25 05:17:44;;;;;;;4.30;3.90;;;8.10;99.90;;;;;;5016650;28;20162;-79
2021/10/25 05:20:10;;;;;;;4.20;3.80;;;8.10;99.90;;;;;;5015946;28;20195;-78
2021/10/25 05:22:43;;;;;;;7.35;4.90;;;8.10;99.90;;;;;;5032389;28;20257;-79
2021/10/25 05:25:09;;;;;;;6.30;4.97;;;8.10;99.90;;;;;;5034066;28;20200;-79
2021/10/25 05:27:35;;;;;;;4.80;4.23;;;8.10;99.90;;;;;;5034658;28;20679;-79
2021/10/25 05:30:04;;;;;;;4.90;4.40;;;8.10;99.90;;;;;;5017724;28;20568;-78
2021/10/25 05:32:30;;;;;;;6.53;4.18;;;8.10;99.90;;;;;;5034318;28;20620;-79
2021/10/25 05:34:57;;;;;;;6.55;5.05;;;8.00;99.90;;;;;;5038078;28;20215;-79
2021/10/25 05:37:24;;;;;;;6.75;4.30;;;8.00;99.90;;;;;;5037803;28;20158;-79
2021/10/25 05:39:50;;;;;;;5.97;5.05;;;8.00;99.90;;;;;;5018881;28;20521;-79
2021/10/25 05:42:20;;;;;;;6.03;4.20;;;8.00;99.90;;;;;;5032606;28;20650;-78
2021/10/25 05:44:46;;;;;;;7.28;4.40;;;7.90;99.90;;;;;;5033067;28;20182;-78
2021/10/25 05:47:12;;;;;;;4.72;4.22;;;7.90;99.90;;;;;;5033127;28;20529;-77
2021/10/25 05:49:39;;;;;;;4.80;3.85;;;7.90;99.90;;;;;;5033398;28;20169;-78
2021/10/25 05:52:04;;;;;;;5.15;4.63;;;7.90;99.90;;;;;;5017580;28;20768;-78
2021/10/25 05:54:32;;;;;;;4.85;3.60;;;7.90;99.90;;;;;;5032671;28;20223;-79
2021/10/25 05:57:06;;;;;;;4.75;4.22;;;7.90;99.90;;;;;;5033966;28;20165;-76
2021/10/25 05:59:34;;;;;;;5.10;4.45;;;7.90;99.90;;;;;;5032776;28;20208;-76
2021/10/25 06:02:13;;;;;;;6.20;4.80;;;7.90;99.90;;;;;;5032311;28;20205;-77
2021/10/25 06:04:43;;;;;;;5.10;4.63;;;7.80;99.90;;;;;;5032432;28;20592;-77
2021/10/25 06:07:26;;;;;;;8.75;4.97;;;7.80;99.90;;;;;;5032216;28;20180;-77
2021/10/25 06:09:52;;;;;;;7.05;5.25;;;7.80;99.90;;;;;;5034114;28;20181;-77
2021/10/25 06:12:20;;;;;;;7.97;6.38;;;7.80;99.90;;;;;;5036352;28;20293;-77
2021/10/25 06:15:10;;;;;;;6.45;4.50;;;7.80;99.90;;;;;;5026253;28;20178;-76
2021/10/25 06:17:50;;;;;;;6.68;5.40;;;7.80;99.90;;;;;;5033192;28;20236;-77
2021/10/25 06:20:17;;;;;;;7.85;5.82;;;7.80;99.90;;;;;;5033108;28;20530;-77
2021/10/25 06:22:44;;;;;;;6.40;4.78;;;7.80;99.90;;;;;;5015962;28;20213;-77
2021/10/25 06:25:13;;;;;;;4.97;4.47;;;7.80;99.90;;;;;;5032694;28;20169;-77
2021/10/25 06:27:46;;;;;;;4.65;4.25;;;7.80;99.90;;;;;;5033703;28;20169;-78
2021/10/25 06:30:13;;;;;;;6.32;5.35;;;7.80;99.90;;;;;;5034156;28;20212;-78
2021/10/25 06:32:40;;;;;;;7.75;5.82;;;7.70;99.90;;;;;;5001588;28;20201;-78
2021/10/25 06:35:26;;;;;;;7.10;5.88;;;7.70;99.90;;;;;;5034525;28;20903;-78
2021/10/25 06:38:12;;;;;;;9.27;5.47;;;7.70;99.90;;;;;;5035132;28;20177;-78
2021/10/25 06:40:38;;;;;;;8.43;5.45;;;7.70;99.90;;;;;;5016662;28;20197;-78
2021/10/25 06:43:05;;;;;;;6.18;5.05;;;7.70;99.90;;;;;;5032748;28;20560;-79
2021/10/25 06:45:31;;;;;;;10.02;6.95;;;7.70;99.90;;;;;;5033373;28;20209;-78
2021/10/25 06:47:58;;;;;;;7.65;5.57;;;7.70;99.90;;;;;;5037639;28;20181;-79
2021/10/25 06:50:28;;;;;;;7.18;6.50;;;7.70;99.90;;;;;;5033973;28;20190;-79
2021/10/25 06:53:04;;;;;;;6.65;4.95;;;7.80;99.90;;;;;;5016673;28;20209;-79
2021/10/25 06:55:38;;;;;;;5.50;4.95;;;7.80;99.90;;;;;;5033756;28;20169;-79
2021/10/25 06:58:08;;;;;;;9.25;6.07;;;7.80;99.90;;;;;;5018949;28;20726;-79
2021/10/25 07:00:35;;;;;;;7.45;4.78;;;7.90;99.90;;;;;;5037364;28;20189;-79
2021/10/25 07:03:03;;;;;;;6.88;5.00;;;7.90;99.90;;;;;;5022045;28;20177;-79
2021/10/25 07:05:36;;;;;;;6.95;5.85;;;7.90;99.90;;;;;;5038835;28;20166;-79
2021/10/25 07:08:06;;;;;;;6.78;5.70;;;7.90;99.90;;;;;;5019190;28;20284;-79
2021/10/25 07:10:33;;;;;;;9.43;5.75;;;8.00;99.90;;;;;;5034135;28;20305;-79
2021/10/25 07:13:00;;;;;;;7.35;6.45;;;8.00;99.90;;;;;;5032789;28;20189;-78
2021/10/25 07:15:29;;;;;;;6.93;4.53;;;8.00;99.90;;;;;;5020326;28;20170;-83
2021/10/25 07:18:07;;;;;;;6.47;4.88;;;8.00;99.90;;;;;;5046095;28;20237;-83
2021/10/25 08:00:31;;;;;;;6.53;5.70;;;9.00;99.90;;;;;;4976118;28;20808;-80
2021/10/25 08:06:28;;;;;;;7.78;5.50;;;9.30;99.90;;;;;;5024826;28;20606;-80
2021/10/25 08:08:47;;;;;;;8.90;6.97;;;9.40;99.90;;;;;;5032026;28;20293;-80
2021/10/25 08:11:16;;;;;;;8.88;7.05;;;9.50;99.90;;;;;;5020953;28;20209;-79
2021/10/25 08:13:54;;;;;;;6.70;5.40;;;9.70;99.90;;;;;;5037769;28;20173;-79
2021/10/25 08:16:31;;;;;;;10.40;6.45;;;9.80;99.90;;;;;;5021183;28;20177;-80
2021/10/25 08:21:42;;;;;;;8.32;5.93;;;10.10;99.90;;;;;;5035003;28;20189;-81
2021/10/25 08:24:08;;;;;;;6.83;5.20;;;10.30;99.90;;;;;;5018185;28;20177;-79
2021/10/25 08:26:52;;;;;;;7.65;5.97;;;10.50;99.90;;;;;;5036648;28;20576;-80
2021/10/25 08:29:19;;;;;;;6.00;5.40;;;11.00;99.90;;;;;;5035064;28;20223;-79
2021/10/25 08:31:56;;;;;;;5.43;4.93;;;11.60;99.90;;;;;;5018814;28;20364;-79
2021/10/25 08:34:41;;;;;;;7.23;5.03;;;12.30;99.90;;;;;;5018864;28;20637;-79
2021/10/25 08:39:53;;;;;;;5.40;4.40;;;14.60;99.90;;;;;;5038376;28;20583;-81
2021/10/25 08:42:26;;;;;;;6.63;4.13;;;15.60;99.90;;;;;;5034153;28;20620;-80
2021/10/25 08:45:18;;;;;;;4.77;3.30;;;16.60;99.90;;;;;;5035242;28;20583;-80
2021/10/25 08:47:48;;;;;;;4.20;3.60;;;17.40;99.90;;;;;;5035374;28;20970;-80
2021/10/25 08:50:17;;;;;;;3.67;3.30;;;18.30;99.90;;;;;;5018162;28;20600;-80
2021/10/25 08:52:45;;;;;;;4.23;2.90;;;19.00;99.90;;;;;;5034300;28;20627;-80
2021/10/25 08:55:16;;;;;;;4.73;3.40;;;19.80;99.90;;;;;;5035612;28;20580;-80
2021/10/25 08:57:44;;;;;;;3.27;2.97;;;20.60;99.90;;;;;;5019676;28;20629;-78
2021/10/25 09:00:22;;;;;;;2.80;2.40;;;20.90;99.90;;;;;;5036010;28;20576;-78
2021/10/25 09:03:08;;;;;;;4.00;2.83;;;21.40;99.90;;;;;;5034946;28;20592;-79
2021/10/25 09:05:34;;;;;;;2.73;2.47;;;22.20;99.90;;;;;;5034288;28;20576;-79
2021/10/25 09:08:07;;;;;;;3.33;2.60;;;22.60;99.90;;;;;;5034657;28;21011;-80
2021/10/25 09:10:44;;;;;;;4.67;3.23;;;22.70;99.90;;;;;;5018177;28;20612;-80
2021/10/25 09:13:17;;;;;;;2.90;2.60;;;22.80;99.90;;;;;;5033787;28;20623;-79
2021/10/25 09:15:52;;;;;;;3.97;2.70;;;22.60;99.90;;;;;;5021463;28;20581;-79
2021/10/25 09:18:41;;;;;;;3.20;2.27;;;22.40;99.90;;;;;;5036258;28;20620;-79
2021/10/25 09:21:13;;;;;;;4.03;3.17;;;22.20;99.90;;;;;;5017823;28;20612;-79
2021/10/25 09:23:42;;;;;;;8.27;3.53;;;21.90;98.20;;;;;;5037898;28;20600;-79
2021/10/25 09:26:17;;;;;;;3.93;2.33;;;21.90;99.90;;;;;;5020171;28;20604;-80
2021/10/25 09:28:54;;;;;;;3.13;2.83;;;22.10;99.60;;;;;;5037092;28;20569;-80
2021/10/25 09:31:29;;;;;;;3.90;2.50;;;22.40;99.90;;;;;;5035125;28;20678;-81
2021/10/25 09:34:01;;;;;;;4.00;2.40;;;22.50;99.90;;;;;;5034730;28;20637;-80
2021/10/25 09:36:57;;;;;;;3.83;2.30;;;22.90;99.90;;;;;;5035954;28;20592;-81
2021/10/25 09:50:52;;;;;;;2.97;1.80;;;24.80;99.20;;;;;;5023337;28;20646;-79
2021/10/25 09:53:55;;;;;;;3.87;1.93;;;25.50;98.50;;;;;;5022477;28;20646;-80
2021/10/25 09:56:30;;;;;;;2.93;2.23;;;25.90;98.40;;;;;;5031599;28;20704;-79
2021/10/25 09:59:49;;;;;;;2.57;1.70;;;26.20;96.20;;;;;;5036449;28;20605;-80
2021/10/25 10:02:21;;;;;;;2.13;1.60;;;26.20;93.80;;;;;;5003926;28;20604;-79
2021/10/25 10:04:55;;;;;;;2.87;2.37;;;26.00;94.00;;;;;;5036001;28;20691;-79
2021/10/25 10:07:27;;;;;;;4.93;1.90;;;25.90;93.40;;;;;;5036884;28;21042;-79
2021/10/25 10:10:03;;;;;;;3.20;1.90;;;25.50;89.50;;;;;;5035839;28;20586;-79
2021/10/25 10:12:30;;;;;;;2.80;1.93;;;25.40;92.00;;;;;;5035022;28;20646;-79
2021/10/25 10:15:01;;;;;;;2.90;1.90;;;25.10;90.00;;;;;;5036388;28;20692;-79
2021/10/25 10:17:59;;;;;;;3.50;1.90;;;24.60;87.30;;;;;;5036734;28;20935;-81
2021/10/25 10:20:37;;;;;;;3.40;1.40;;;24.30;82.20;;;;;;5038133;28;20612;-79
2021/10/25 10:23:14;;;;;;;4.13;1.77;;;24.10;89.60;;;;;;5037921;28;20637;-79
2021/10/25 10:25:52;;;;;;;2.57;1.70;;;24.00;89.20;;;;;;5019949;28;20580;-79
2021/10/25 10:28:40;;;;;;;2.43;1.50;;;23.70;88.70;;;;;;5033932;28;20603;-79
2021/10/25 10:31:12;;;;;;;2.10;1.53;;;23.80;90.10;;;;;;5038252;28;21175;-79
2021/10/25 10:33:49;;;;;;;1.93;1.40;;;23.90;91.20;;;;;;5018521;28;20573;-80
2021/10/25 10:36:21;;;;;;;2.70;1.67;;;24.10;90.20;;;;;;5034683;28;20584;-79
2021/10/25 10:39:00;;;;;;;2.00;1.27;;;24.00;90.00;;;;;;5034536;28;21253;-80
2021/10/25 10:41:49;;;;;;;4.27;1.77;;;24.00;90.20;;;;;;5035276;28;20757;-80
2021/10/25 10:44:52;;;;;;;2.63;1.80;;;23.90;87.60;;;;;;5019572;28;20603;-80
2021/10/25 10:47:20;;;;;;;2.80;1.87;;;23.80;89.50;;;;;;5018153;28;20647;-81
2021/10/25 10:49:51;;;;;;;2.70;1.40;;;23.80;88.20;;;;;;5033268;28;20588;-80
2021/10/25 10:52:25;;;;;;;5.07;2.47;;;23.60;86.90;;;;;;5033287;28;21001;-80
2021/10/25 10:55:22;;;;;;;2.23;1.77;;;23.40;86.20;;;;;;5032472;28;20674;-80
2021/10/25 11:00:49;;;;;;;1.93;1.20;;;23.10;87.00;;;;;;5033247;28;20913;-80
2021/10/25 11:03:15;;;;;;;2.33;1.30;;;23.10;87.70;;;;;;5029692;28;20963;-80
2021/10/25 11:05:51;;;;;;;2.70;1.73;;;23.10;88.70;;;;;;5034583;28;20571;-80
2021/10/25 11:08:24;;;;;;;3.43;1.70;;;22.90;86.90;;;;;;5036609;28;20546;-79
2021/10/25 11:11:00;;;;;;;2.00;1.23;;;22.70;84.00;;;;;;5033265;28;20950;-80
2021/10/25 11:13:29;;;;;;;3.00;2.10;;;22.40;84.60;;;;;;5031876;28;20560;-80
2021/10/25 11:18:36;;;;;;;3.53;1.50;;;21.80;84.30;;;;;;5033989;28;20556;-80
2021/10/25 11:21:13;;;;;;;2.30;1.40;;;21.60;85.20;;;;;;5033001;28;20591;-79
2021/10/25 11:23:43;;;;;;;2.70;1.43;;;21.50;84.80;;;;;;5033106;28;20946;-80
2021/10/25 11:26:18;;;;;;;3.20;1.93;;;21.30;85.70;;;;;;5031316;28;20567;-80
2021/10/25 11:29:02;;;;;;;4.53;1.73;;;21.10;86.20;;;;;;5032898;28;20667;-80
2021/10/25 11:31:31;;;;;;;2.20;1.50;;;21.00;86.70;;;;;;5031770;28;21025;-80
2021/10/25 11:34:00;;;;;;;6.17;1.47;;;20.80;86.50;;;;;;5032940;28;20601;-80
2021/10/25 11:36:29;;;;;;;2.73;1.67;;;20.80;87.80;;;;;;5033384;28;20596;-81
2021/10/25 11:38:57;;;;;;;2.47;1.70;;;20.80;88.80;;;;;;5033729;28;20667;-80
2021/10/25 11:41:24;;;;;;;3.10;1.57;;;20.90;89.70;;;;;;5036255;28;20615;-80
2021/10/25 11:43:51;;;;;;;2.70;1.50;;;20.90;89.30;;;;;;5040855;28;20790;-81
2021/10/25 11:46:22;;;;;;;2.80;1.67;;;20.90;88.70;;;;;;5036452;28;20669;-81
2021/10/25 11:48:58;;;;;;;4.27;1.50;;;20.90;88.90;;;;;;5035954;28;20572;-80
2021/10/25 11:51:24;;;;;;;3.10;1.60;;;20.80;88.50;;;;;;5035847;28;20623;-80
2021/10/25 11:54:00;;;;;;;3.33;1.50;;;20.80;89.10;;;;;;5034512;28;20568;-80
2021/10/25 11:56:29;;;;;;;3.20;1.67;;;20.60;88.40;;;;;;5035663;28;20575;-80
2021/10/25 11:58:55;;;;;;;1.90;1.40;;;20.60;88.50;;;;;;5035528;28;20587;-79
2021/10/25 12:01:24;;;;;;;1.97;1.30;;;20.50;88.80;;;;;;5035252;28;20638;-80
2021/10/25 12:04:05;;;;;;;2.53;1.30;;;20.40;88.90;;;;;;5033966;28;20691;-80
2021/10/25 12:06:31;;;;;;;2.87;1.47;;;20.30;89.50;;;;;;5034414;28;20576;-80
2021/10/25 12:09:06;;;;;;;3.70;2.13;;;20.30;89.90;;;;;;5035949;28;20732;-80
2021/10/25 12:11:50;;;;;;;2.57;1.53;;;20.40;90.10;;;;;;5035548;28;20730;-80
2021/10/25 12:14:26;;;;;;;4.70;1.13;;;20.40;90.20;;;;;;5034217;28;20928;-80
2021/10/25 12:16:53;;;;;;;3.50;1.47;;;20.40;90.20;;;;;;5034104;28;20559;-80
2021/10/25 12:19:19;;;;;;;2.47;1.67;;;20.40;90.40;;;;;;5034808;28;20577;-80
2021/10/25 12:21:46;;;;;;;3.87;1.40;;;20.30;90.20;;;;;;5039611;28;20703;-80
2021/10/25 12:24:12;;;;;;;2.17;1.20;;;20.30;90.50;;;;;;5035674;28;20679;-80
2021/10/25 12:26:42;;;;;;;2.97;1.13;;;20.30;90.50;;;;;;5035008;28;20611;-81
2021/10/25 12:29:18;;;;;;;2.70;1.83;;;20.40;90.90;;;;;;5034714;28;20592;-80
2021/10/25 12:31:46;;;;;;;6.60;1.30;;;20.40;90.30;;;;;;5033598;28;20712;-80
2021/10/25 12:34:12;;;;;;;2.10;1.20;;;20.50;91.10;;;;;;5034463;28;20561;-80
2021/10/25 12:36:42;;;;;;;4.23;1.50;;;20.60;91.40;;;;;;5034676;28;20560;-80
2021/10/25 12:39:12;;;;;;;4.53;1.50;;;20.70;91.60;;;;;;5034784;28;20571;-81
2021/10/25 12:41:49;;;;;;;6.03;1.60;;;20.80;91.30;;;;;;5034044;28;20615;-80
2021/10/25 12:44:32;;;;;;;3.20;1.60;;;20.80;90.90;;;;;;5034078;28;20575;-79
2021/10/25 12:47:07;;;;;;;4.00;1.33;;;20.70;90.70;;;;;;5033180;28;20576;-80
2021/10/25 12:49:34;;;;;;;2.13;1.30;;;20.60;90.70;;;;;;5034265;28;20956;-80
2021/10/25 12:52:07;;;;;;;3.93;1.77;;;20.60;90.80;;;;;;5034040;28;20646;-80
2021/10/25 12:54:35;;;;;;;2.30;1.63;;;20.50;90.90;;;;;;5034503;28;21028;-80
2021/10/25 12:57:05;;;;;;;5.43;2.00;;;20.40;90.90;;;;;;5033087;28;20619;-80
2021/10/25 12:59:32;;;;;;;2.83;0.93;;;20.50;91.20;;;;;;5037684;28;20570;-80
2021/10/25 13:01:58;;;;;;;3.07;1.70;;;20.50;91.30;;;;;;5034196;28;21179;-80
2021/10/25 13:04:24;;;;;;;4.03;2.40;;;20.60;91.50;;;;;;5031999;28;20579;-79
2021/10/25 13:06:50;;;;;;;4.47;2.20;;;20.70;91.60;;;;;;5033931;28;20243;-80
2021/10/25 13:09:16;;;;;;;5.00;2.47;;;20.80;91.60;;;;;;5033718;28;20568;-79
2021/10/25 13:11:44;;;;;;;4.00;3.50;;;20.80;91.70;;;;;;5033924;28;21013;-79
2021/10/25 13:14:10;;;;;;;4.17;2.73;;;20.90;91.70;;;;;;5033105;28;20681;-79
2021/10/25 13:19:04;;;;;;;5.10;2.43;;;21.00;91.90;;;;;;5033516;28;20174;-80
2021/10/25 13:21:30;;;;;;;3.40;2.00;;;21.10;91.80;;;;;;5016054;28;21005;-80
2021/10/25 13:23:56;;;;;;;2.60;1.50;;;21.10;91.60;;;;;;5033160;28;20649;-79
2021/10/25 13:26:22;;;;;;;3.73;1.70;;;21.10;91.50;;;;;;5033683;28;20172;-79
2021/10/25 13:28:48;;;;;;;2.47;1.20;;;21.00;91.30;;;;;;5032989;28;20260;-80
2021/10/25 13:31:14;;;;;;;4.13;1.27;;;21.00;91.30;;;;;;5034608;28;20628;-80
2021/10/25 13:33:41;;;;;;;3.00;0.93;;;20.90;91.20;;;;;;5032190;28;20173;-81
2021/10/25 13:36:07;;;;;;;2.80;1.17;;;20.90;91.30;;;;;;5035421;28;20572;-80
2021/10/25 13:38:33;;;;;;;4.80;1.97;;;20.90;91.50;;;;;;5033925;28;20565;-79
2021/10/25 13:41:01;;;;;;;2.33;1.40;;;20.90;91.60;;;;;;5015830;28;20627;-80
2021/10/25 13:43:27;;;;;;;3.93;1.50;;;20.90;91.60;;;;;;5031713;28;20703;-80
2021/10/25 13:45:52;;;;;;;3.53;2.00;;;20.80;91.50;;;;;;5033470;28;20584;-80
2021/10/25 13:48:18;;;;;;;2.53;1.80;;;20.80;91.40;;;;;;5031983;28;20205;-80
2021/10/25 13:50:44;;;;;;;2.53;1.70;;;20.70;91.50;;;;;;5032015;28;20190;-80
2021/10/25 13:53:09;;;;;;;3.80;1.70;;;20.70;91.70;;;;;;5032845;28;20208;-80
2021/10/25 13:55:36;;;;;;;2.00;1.50;;;20.70;91.70;;;;;;5032099;28;20162;-79
2021/10/25 13:58:02;;;;;;;3.07;1.47;;;20.70;91.50;;;;;;5032785;28;20630;-79
2021/10/25 14:00:28;;;;;;;2.70;1.83;;;20.70;91.40;;;;;;5032672;28;20598;-80
2021/10/25 14:02:56;;;;;;;3.83;1.70;;;20.60;91.30;;;;;;5032056;28;20660;-79
2021/10/25 14:05:22;;;;;;;3.07;2.03;;;20.60;91.30;;;;;;5031526;28;20567;-80
2021/10/25 14:07:48;;;;;;;4.43;1.63;;;20.50;91.30;;;;;;5031729;28;20626;-80
2021/10/25 14:10:24;;;;;;;4.17;1.60;;;20.50;91.40;;;;;;5033170;28;20592;-79
2021/10/25 14:12:50;;;;;;;4.50;2.53;;;20.40;91.60;;;;;;5035942;28;20623;-80
2021/10/25 14:15:30;;;;;;;2.47;1.83;;;20.30;91.80;;;;;;5034495;28;20582;-80
2021/10/25 14:17:58;;;;;;;3.10;2.10;;;20.30;92.00;;;;;;5033079;28;20588;-80
2021/10/25 14:20:27;;;;;;;2.97;2.03;;;20.20;92.30;;;;;;5039953;28;20583;-80
2021/10/25 14:22:57;;;;;;;2.83;1.40;;;20.10;92.40;;;;;;5041953;28;20588;-79
2021/10/25 14:25:22;;;;;;;5.70;2.30;;;20.10;92.50;;;;;;5024566;28;20652;-79
2021/10/25 14:27:48;;;;;;;3.40;1.63;;;20.00;92.60;;;;;;5041596;28;20611;-80
2021/10/25 14:30:15;;;;;;;5.30;2.80;;;19.90;92.80;;;;;;5039029;28;20177;-79
2021/10/25 14:32:40;;;;;;;12.97;5.97;;;19.80;93.00;;;;;;5030508;28;20628;-79
2021/10/25 14:35:07;;;;;;;9.57;6.60;;;19.70;93.10;;;;;;5032392;28;20576;-79
2021/10/25 14:37:33;;;;;;;7.20;4.63;;;19.70;93.10;;;;;;4998881;28;20212;-79
2021/10/25 14:40:09;;;;;;;5.97;4.20;;;19.70;93.30;;;;;;5031990;28;20556;-80
2021/10/25 14:42:36;;;;;;;5.50;2.40;;;19.60;93.40;;;;;;5031603;28;20576;-78
2021/10/25 14:45:11;;;;;;;4.60;2.30;;;19.50;93.50;;;;;;5030748;28;20572;-77
2021/10/25 14:47:52;;;;;;;3.93;1.40;;;19.40;93.50;;;;;;5030110;28;20599;-77
2021/10/25 14:53:22;;;;;;;3.10;1.30;;;19.40;94.00;;;;;;5025147;28;20957;-77
2021/10/25 14:56:04;;;;;;;5.37;1.67;;;19.30;94.10;;;;;;5031193;28;21186;-77